createdAt,value
2022-10-19T00:01:26.961Z,63.60
2022-10-19T00:03:57.530Z,63.50
2022-10-19T00:06:29.776Z,63.60
2022-10-19T00:09:02.294Z,63.70
2022-10-19T00:11:34.134Z,63.60
2022-10-19T00:14:03.283Z,63.60
2022-10-19T00:16:34.614Z,63.50
2022-10-19T00:19:06.414Z,63.50
2022-10-19T00:21:35.201Z,63.50
2022-10-19T00:24:05.641Z,63.50
2022-10-19T00:26:35.287Z,63.50
2022-10-19T00:29:04.956Z,63.60
2022-10-19T00:31:33.786Z,63.50
2022-10-19T00:34:02.500Z,63.50
2022-10-19T00:36:33.916Z,63.50
2022-10-19T00:39:08.921Z,63.40
2022-10-19T00:41:38.822Z,63.40
2022-10-19T00:44:47.250Z,63.40
2022-10-19T00:47:16.792Z,63.40
2022-10-19T00:49:48.062Z,63.50
2022-10-19T00:52:37.120Z,63.40
2022-10-19T00:55:09.695Z,63.30
2022-10-19T00:57:38.683Z,63.40
2022-10-19T01:00:10.002Z,63.30
2022-10-19T01:02:39.064Z,63.40
2022-10-19T01:05:09.438Z,63.40
2022-10-19T01:07:38.020Z,63.50
2022-10-19T01:10:09.702Z,63.50
2022-10-19T01:13:03.762Z,63.60
2022-10-19T01:15:42.899Z,63.80
2022-10-19T01:18:21.207Z,63.80
2022-10-19T01:21:20.450Z,63.80
2022-10-19T01:24:29.876Z,63.90
2022-10-19T01:27:32.467Z,63.90
2022-10-19T01:30:11.875Z,63.90
2022-10-19T01:32:58.517Z,63.80
2022-10-19T01:35:36.023Z,63.70
2022-10-19T01:38:17.179Z,63.50
2022-10-19T01:40:55.949Z,63.40
2022-10-19T01:43:35.955Z,63.20
2022-10-19T01:46:13.503Z,63.10
2022-10-19T01:48:48.059Z,63.00
2022-10-19T01:51:21.247Z,63.10
2022-10-19T01:53:54.254Z,63.00
2022-10-19T01:56:27.702Z,63.00
2022-10-19T01:58:59.415Z,63.10
2022-10-19T02:01:35.167Z,63.10
2022-10-19T02:04:05.327Z,63.00
2022-10-19T02:06:33.950Z,63.80
2022-10-19T02:09:02.499Z,63.00
2022-10-19T02:11:32.794Z,62.90
2022-10-19T02:14:16.981Z,62.90
2022-10-19T02:16:52.778Z,62.80
2022-10-19T02:21:57.767Z,62.60
2022-10-19T02:24:26.533Z,62.60
2022-10-19T02:26:56.658Z,62.70
2022-10-19T02:29:25.319Z,62.80
2022-10-19T02:31:55.352Z,62.90
2022-10-19T02:34:23.928Z,63.00
2022-10-19T02:36:52.658Z,63.00
2022-10-19T02:39:21.911Z,62.90
2022-10-19T02:41:56.260Z,63.00
2022-10-19T02:44:30.389Z,63.10
2022-10-19T02:47:07.838Z,63.20
2022-10-19T02:49:38.126Z,63.10
2022-10-19T02:52:08.954Z,63.10
2022-10-19T02:54:37.611Z,63.20
2022-10-19T02:57:16.964Z,63.30
2022-10-19T02:59:45.783Z,63.30
2022-10-19T03:02:16.240Z,63.30
2022-10-19T03:07:21.899Z,63.40
2022-10-19T03:09:50.886Z,63.50
2022-10-19T03:12:19.808Z,63.30
2022-10-19T03:14:48.292Z,63.20
2022-10-19T03:17:18.272Z,63.10
2022-10-19T03:19:46.807Z,63.00
2022-10-19T03:22:15.863Z,62.80
2022-10-19T03:24:44.470Z,62.80
2022-10-19T03:27:12.999Z,62.80
2022-10-19T03:29:41.504Z,62.80
2022-10-19T03:32:10.092Z,62.90
2022-10-19T03:34:39.990Z,62.80
2022-10-19T03:37:08.730Z,62.90
2022-10-19T03:39:37.359Z,63.00
2022-10-19T03:42:05.854Z,63.10
2022-10-19T03:44:34.414Z,63.10
2022-10-19T03:47:03.019Z,63.00
2022-10-19T03:49:32.354Z,63.00
2022-10-19T03:52:02.891Z,62.90
2022-10-19T03:54:31.460Z,62.90
2022-10-19T03:57:00.002Z,62.90
2022-10-19T03:59:28.564Z,62.90
2022-10-19T04:01:57.132Z,62.90
2022-10-19T04:04:25.677Z,63.00
2022-10-19T04:06:54.332Z,62.80
2022-10-19T04:09:24.850Z,62.80
2022-10-19T04:11:53.500Z,62.70
2022-10-19T04:14:32.042Z,62.60
2022-10-19T04:17:02.395Z,62.70
2022-10-19T04:19:31.325Z,62.80
2022-10-19T04:21:59.928Z,63.60
2022-10-19T04:24:29.910Z,63.00
2022-10-19T04:26:58.556Z,63.00
2022-10-19T04:29:29.811Z,63.00
2022-10-19T04:31:59.804Z,63.10
2022-10-19T04:34:28.677Z,63.20
2022-10-19T04:36:59.486Z,63.30
2022-10-19T04:39:29.584Z,63.30
2022-10-19T04:41:58.138Z,63.30
2022-10-19T04:44:26.667Z,63.40
2022-10-19T04:46:55.279Z,63.40
2022-10-19T04:49:23.736Z,63.40
2022-10-19T04:51:52.271Z,63.50
2022-10-19T04:54:20.872Z,63.60
2022-10-19T04:56:51.212Z,63.70
2022-10-19T04:59:19.685Z,63.80
2022-10-19T05:01:48.252Z,63.80
2022-10-19T05:04:16.735Z,63.80
2022-10-19T05:06:45.222Z,63.90
2022-10-19T05:09:13.856Z,63.90
2022-10-19T05:11:42.368Z,63.90
2022-10-19T05:14:12.272Z,63.90
2022-10-19T05:16:40.867Z,63.90
2022-10-19T05:19:13.789Z,63.90
2022-10-19T05:21:42.420Z,64.00
2022-10-19T05:24:14.282Z,63.90
2022-10-19T05:26:42.853Z,64.00
2022-10-19T05:29:14.734Z,63.90
2022-10-19T05:31:43.436Z,63.90
2022-10-19T05:34:12.133Z,63.90
2022-10-19T05:36:41.478Z,63.90
2022-10-19T05:39:14.727Z,63.90
2022-10-19T05:41:45.213Z,63.90
2022-10-19T05:44:17.552Z,63.90
2022-10-19T05:46:46.524Z,64.00
2022-10-19T05:49:16.417Z,63.90
2022-10-19T05:51:45.083Z,64.00
2022-10-19T05:54:14.494Z,63.90
2022-10-19T05:56:43.950Z,64.00
2022-10-19T05:59:17.782Z,64.00
2022-10-19T06:01:46.594Z,64.10
2022-10-19T06:04:18.585Z,64.20
2022-10-19T06:06:47.248Z,64.10
2022-10-19T06:09:15.899Z,64.00
2022-10-19T06:11:44.912Z,64.00
2022-10-19T06:14:17.315Z,64.00
2022-10-19T06:16:46.961Z,64.10
2022-10-19T06:19:15.564Z,64.10
2022-10-19T06:21:46.353Z,65.00
2022-10-19T06:24:15.006Z,64.20
2022-10-19T06:26:43.659Z,64.20
2022-10-19T06:29:12.435Z,64.10
2022-10-19T06:31:42.395Z,64.10
2022-10-19T06:34:10.946Z,64.10
2022-10-19T06:36:39.721Z,64.20
2022-10-19T06:39:08.350Z,64.10
2022-10-19T06:41:36.901Z,64.20
2022-10-19T06:44:20.316Z,64.20
2022-10-19T06:46:50.292Z,64.20
2022-10-19T06:49:18.796Z,64.20
2022-10-19T06:51:47.403Z,64.10
2022-10-19T06:54:15.964Z,64.10
2022-10-19T06:56:44.575Z,64.10
2022-10-19T06:59:14.841Z,64.00
2022-10-19T07:01:43.574Z,64.00
2022-10-19T07:04:13.534Z,64.10
2022-10-19T07:06:42.201Z,63.90
2022-10-19T07:09:10.757Z,63.70
2022-10-19T07:11:44.793Z,63.60
2022-10-19T07:14:14.667Z,63.70
2022-10-19T07:16:43.232Z,63.90
2022-10-19T07:19:13.639Z,63.90
2022-10-19T07:21:43.839Z,63.90
2022-10-19T07:24:12.556Z,64.00
2022-10-19T07:26:41.241Z,64.00
2022-10-19T07:29:09.827Z,64.10
2022-10-19T07:31:38.388Z,64.20
2022-10-19T07:34:07.344Z,64.30
2022-10-19T07:36:37.985Z,64.40
2022-10-19T07:39:08.692Z,64.10
2022-10-19T07:41:37.268Z,64.00
2022-10-19T07:44:06.593Z,64.00
2022-10-19T07:46:37.231Z,63.90
2022-10-19T07:49:09.980Z,63.90
2022-10-19T07:51:40.972Z,63.70
2022-10-19T07:54:10.107Z,63.70
2022-10-19T07:56:38.807Z,63.50
2022-10-19T07:59:07.736Z,63.40
2022-10-19T08:01:42.244Z,63.50
2022-10-19T08:07:00.875Z,63.50
2022-10-19T08:12:18.103Z,63.20
2022-10-19T08:14:48.039Z,63.00
2022-10-19T08:17:17.757Z,62.90
2022-10-19T08:19:47.142Z,62.70
2022-10-19T08:22:17.114Z,63.50
2022-10-19T08:24:45.711Z,62.80
2022-10-19T08:27:14.883Z,62.90
2022-10-19T08:29:43.451Z,62.80
2022-10-19T08:32:12.157Z,62.80
2022-10-19T08:34:41.457Z,62.70
2022-10-19T08:37:20.012Z,62.70
2022-10-19T08:40:00.088Z,62.90
2022-10-19T08:42:37.479Z,62.70
2022-10-19T08:45:26.968Z,62.50
2022-10-19T08:48:04.656Z,62.20
2022-10-19T08:50:39.713Z,62.30
2022-10-19T08:53:14.299Z,62.00
2022-10-19T08:56:03.536Z,61.80
2022-10-19T08:58:53.575Z,61.70
2022-10-19T09:01:37.679Z,61.70
2022-10-19T09:04:11.616Z,61.70
2022-10-19T09:06:58.200Z,62.00
2022-10-19T09:09:28.664Z,62.00
2022-10-19T09:12:05.159Z,62.10
2022-10-19T09:14:37.529Z,61.80
2022-10-19T09:17:15.292Z,61.90
2022-10-19T09:19:44.088Z,61.80
2022-10-19T09:22:21.718Z,61.90
2022-10-19T09:24:54.479Z,61.60
2022-10-19T09:27:27.115Z,61.70
2022-10-19T09:29:58.239Z,61.60
2022-10-19T09:32:32.797Z,61.50
2022-10-19T09:35:04.688Z,61.30
2022-10-19T09:37:38.454Z,61.40
2022-10-19T09:40:12.996Z,61.20
2022-10-19T09:42:42.946Z,61.40
2022-10-19T09:45:18.357Z,61.30
2022-10-19T09:47:50.126Z,61.20
2022-10-19T09:50:22.427Z,61.10
2022-10-19T09:52:53.057Z,61.20
2022-10-19T09:55:30.192Z,61.30
2022-10-19T09:58:06.976Z,60.90
2022-10-19T10:00:39.671Z,60.80
2022-10-19T10:03:08.934Z,61.70
2022-10-19T10:05:39.842Z,60.90
2022-10-19T10:08:18.083Z,60.80
2022-10-19T10:10:49.793Z,60.40
2022-10-19T10:13:23.209Z,60.60
2022-10-19T10:15:58.178Z,60.30
2022-10-19T10:18:29.171Z,60.00
2022-10-19T10:21:06.846Z,59.80
2022-10-19T10:23:37.753Z,59.70
2022-10-19T10:26:16.611Z,59.90
2022-10-19T10:28:51.598Z,59.80
2022-10-19T10:31:25.758Z,60.20
2022-10-19T10:34:10.781Z,59.80
2022-10-19T10:36:52.745Z,59.70
2022-10-19T10:39:21.644Z,59.60
2022-10-19T10:41:50.690Z,59.50
2022-10-19T10:44:24.110Z,59.50
2022-10-19T10:46:57.045Z,59.40
2022-10-19T10:49:30.065Z,59.50
2022-10-19T10:52:02.004Z,60.00
2022-10-19T10:54:32.252Z,59.20
2022-10-19T10:57:13.989Z,59.20
2022-10-19T10:59:55.456Z,59.10
2022-10-19T11:02:34.477Z,59.20
2022-10-19T11:05:09.690Z,59.00
2022-10-19T11:07:42.349Z,59.10
2022-10-19T11:10:23.654Z,59.20
2022-10-19T11:13:00.589Z,58.90
2022-10-19T11:15:36.619Z,59.00
2022-10-19T11:18:17.433Z,58.80
2022-10-19T11:20:58.170Z,58.80
2022-10-19T11:23:45.383Z,58.90
2022-10-19T11:26:37.079Z,58.90
2022-10-19T11:29:32.107Z,58.70
2022-10-19T11:32:02.294Z,58.60
2022-10-19T11:34:46.982Z,58.90
2022-10-19T11:37:26.219Z,58.70
2022-10-19T11:40:10.260Z,58.70
2022-10-19T11:42:54.819Z,58.60
2022-10-19T11:45:41.410Z,58.30
2022-10-19T11:48:43.882Z,58.20
2022-10-19T11:51:22.768Z,58.20
2022-10-19T11:54:03.619Z,58.50
2022-10-19T11:56:58.058Z,58.50
2022-10-19T11:59:38.595Z,58.30
2022-10-19T12:03:06.030Z,58.40
2022-10-19T12:05:48.408Z,58.40
2022-10-19T12:08:38.637Z,58.40
2022-10-19T12:11:26.156Z,57.70
2022-10-19T12:13:58.515Z,57.70
2022-10-19T12:16:37.194Z,58.20
2022-10-19T12:19:08.163Z,58.10
2022-10-19T12:21:41.076Z,58.20
2022-10-19T12:24:18.413Z,57.90
2022-10-19T12:26:48.392Z,57.70
2022-10-19T12:29:22.675Z,57.80
2022-10-19T12:31:52.251Z,57.70
2022-10-19T12:34:35.115Z,57.80
2022-10-19T12:37:14.749Z,57.70
2022-10-19T12:39:52.467Z,57.40
2022-10-19T12:42:29.601Z,57.40
2022-10-19T12:45:25.253Z,57.20
2022-10-19T12:48:20.677Z,57.70
2022-10-19T12:51:08.222Z,57.20
2022-10-19T12:53:40.947Z,57.20
2022-10-19T12:56:16.050Z,57.50
2022-10-19T12:58:54.033Z,56.80
2022-10-19T13:01:28.083Z,56.60
2022-10-19T13:04:11.746Z,56.70
2022-10-19T13:06:44.976Z,56.50
2022-10-19T13:09:26.171Z,56.80
2022-10-19T13:12:31.253Z,56.80
2022-10-19T13:15:00.970Z,56.90
2022-10-19T13:17:46.321Z,57.40
2022-10-19T13:20:52.852Z,56.90
2022-10-19T13:23:42.937Z,57.10
2022-10-19T13:26:33.998Z,56.80
2022-10-19T13:29:03.272Z,57.00
2022-10-19T13:31:34.114Z,57.40
2022-10-19T13:34:11.187Z,56.90
2022-10-19T13:36:40.336Z,56.90
2022-10-19T13:39:16.957Z,56.60
2022-10-19T13:41:57.492Z,56.40
2022-10-19T13:44:35.561Z,56.30
2022-10-19T13:47:28.526Z,56.30
2022-10-19T13:50:25.238Z,56.10
2022-10-19T13:53:29.822Z,56.00
2022-10-19T13:56:16.837Z,56.00
2022-10-19T13:59:28.698Z,56.20
2022-10-19T14:02:53.837Z,55.90
2022-10-19T14:05:49.046Z,56.30
2022-10-19T14:08:44.717Z,56.40
2022-10-19T14:11:17.326Z,56.20
2022-10-19T14:13:46.058Z,56.20
2022-10-19T14:16:22.345Z,56.30
2022-10-19T14:18:56.199Z,56.20
2022-10-19T14:21:34.016Z,56.40
2022-10-19T14:24:02.859Z,56.20
2022-10-19T14:26:32.135Z,56.50
2022-10-19T14:29:01.733Z,56.50
2022-10-19T14:31:36.482Z,56.40
2022-10-19T14:34:09.315Z,56.50
2022-10-19T14:36:41.272Z,56.50
2022-10-19T14:39:13.842Z,56.40
2022-10-19T14:41:42.429Z,56.40
2022-10-19T14:44:38.692Z,56.30
2022-10-19T14:47:23.990Z,55.70
2022-10-19T14:49:52.635Z,55.90
2022-10-19T14:52:29.081Z,56.20
2022-10-19T14:54:58.521Z,56.20
2022-10-19T14:57:30.559Z,56.30
2022-10-19T15:00:02.576Z,56.20
2022-10-19T15:02:38.030Z,56.20
2022-10-19T15:05:18.198Z,56.20
2022-10-19T15:07:46.908Z,56.10
2022-10-19T15:10:23.114Z,56.00
2022-10-19T15:12:54.086Z,55.60
2022-10-19T15:15:28.488Z,55.90
2022-10-19T15:18:06.273Z,55.90
2022-10-19T15:20:49.036Z,55.80
2022-10-19T15:23:42.725Z,56.00
2022-10-19T15:26:22.534Z,55.80
2022-10-19T15:28:52.054Z,55.70
2022-10-19T15:31:24.982Z,56.00
2022-10-19T15:33:56.957Z,56.00
2022-10-19T15:36:27.499Z,56.00
2022-10-19T15:39:18.496Z,56.00
2022-10-19T15:41:52.920Z,55.70
2022-10-19T15:44:34.280Z,55.80
2022-10-19T15:47:23.731Z,55.30
2022-10-19T15:50:00.622Z,55.10
2022-10-19T15:52:31.513Z,55.30
2022-10-19T15:55:02.028Z,55.40
2022-10-19T15:57:34.177Z,55.30
2022-10-19T16:00:13.238Z,55.30
2022-10-19T16:02:41.942Z,55.20
2022-10-19T16:05:12.150Z,55.40
2022-10-19T16:07:42.969Z,55.50
2022-10-19T16:10:17.975Z,55.60
2022-10-19T16:12:46.603Z,55.60
2022-10-19T16:15:17.409Z,55.60
2022-10-19T16:17:48.212Z,55.60
2022-10-19T16:20:19.259Z,55.60
2022-10-19T16:22:48.933Z,55.60
2022-10-19T16:25:18.219Z,55.80
2022-10-19T16:27:46.842Z,55.90
2022-10-19T16:30:15.905Z,55.90
2022-10-19T16:32:44.528Z,56.00
2022-10-19T16:35:13.085Z,56.00
2022-10-19T16:37:43.038Z,56.00
2022-10-19T16:40:12.588Z,56.00
2022-10-19T16:42:41.197Z,56.00
2022-10-19T16:45:11.661Z,56.10
2022-10-19T16:47:40.317Z,56.20
2022-10-19T16:50:09.881Z,56.20
2022-10-19T16:52:38.859Z,56.30
2022-10-19T16:55:09.811Z,56.20
2022-10-19T16:57:38.881Z,56.30
2022-10-19T17:00:10.178Z,56.30
2022-10-19T17:02:42.011Z,56.40
2022-10-19T17:05:13.011Z,56.40
2022-10-19T17:07:41.644Z,56.40
2022-10-19T17:10:12.030Z,56.50
2022-10-19T17:12:41.380Z,56.50
2022-10-19T17:15:40.838Z,56.50
2022-10-19T17:17:59.706Z,56.60
2022-10-19T17:20:28.291Z,56.50
2022-10-19T17:22:56.845Z,56.50
2022-10-19T17:25:26.878Z,56.50
2022-10-19T17:27:55.646Z,56.60
2022-10-19T17:30:24.336Z,56.60
2022-10-19T17:32:53.275Z,56.60
2022-10-19T17:35:21.845Z,56.70
2022-10-19T17:37:50.368Z,56.60
2022-10-19T17:40:20.011Z,56.60
2022-10-19T17:42:51.268Z,56.60
2022-10-19T17:45:20.065Z,56.60
2022-10-19T17:48:10.081Z,56.60
2022-10-19T17:50:38.728Z,56.60
2022-10-19T17:53:07.560Z,56.60
2022-10-19T17:55:38.251Z,56.70
2022-10-19T17:58:08.362Z,56.70
2022-10-19T18:00:37.220Z,56.70
2022-10-19T18:03:05.972Z,56.80
2022-10-19T18:05:34.576Z,56.90
2022-10-19T18:08:03.126Z,56.90
2022-10-19T18:10:32.674Z,57.00
2022-10-19T18:13:01.585Z,57.00
2022-10-19T18:15:31.573Z,57.00
2022-10-19T18:18:01.418Z,57.00
2022-10-19T18:20:30.434Z,56.90
2022-10-19T18:22:59.007Z,56.90
2022-10-19T18:25:49.343Z,56.90
2022-10-19T18:28:16.196Z,56.90
2022-10-19T18:31:49.170Z,56.90
2022-10-19T18:34:21.810Z,57.30
2022-10-19T18:36:50.414Z,57.30
2022-10-19T18:39:19.980Z,57.30
2022-10-19T18:41:54.566Z,57.30
2022-10-19T18:44:27.167Z,57.20
2022-10-19T18:46:57.976Z,57.20
2022-10-19T18:49:28.072Z,57.10
2022-10-19T18:51:56.637Z,56.90
2022-10-19T18:54:26.402Z,56.90
2022-10-19T18:56:55.765Z,57.00
2022-10-19T18:59:24.732Z,57.10
2022-10-19T19:01:53.387Z,57.00
2022-10-19T19:04:22.722Z,57.00
2022-10-19T19:06:53.962Z,57.10
2022-10-19T19:09:22.710Z,57.10
2022-10-19T19:11:51.666Z,57.20
2022-10-19T19:14:22.055Z,57.30
2022-10-19T19:16:50.825Z,57.30
2022-10-19T19:19:21.085Z,57.40
2022-10-19T19:21:50.018Z,57.50
2022-10-19T19:24:22.909Z,57.50
2022-10-19T19:26:54.875Z,57.60
2022-10-19T19:29:24.289Z,57.60
2022-10-19T19:31:54.188Z,57.60
2022-10-19T19:34:23.788Z,57.60
2022-10-19T19:36:52.857Z,57.60
2022-10-19T19:39:23.178Z,57.50
2022-10-19T19:41:52.082Z,57.50
2022-10-19T19:44:21.208Z,57.70
2022-10-19T19:46:49.828Z,57.70
2022-10-19T19:49:18.757Z,57.70
2022-10-19T19:51:48.191Z,57.70
2022-10-19T19:54:16.865Z,57.80
2022-10-19T19:56:46.829Z,57.70
2022-10-19T19:59:15.341Z,57.70
2022-10-19T20:01:44.201Z,57.70
2022-10-19T20:04:14.195Z,57.70
2022-10-19T20:06:44.595Z,57.70
2022-10-19T20:09:13.304Z,57.70
2022-10-19T20:11:42.863Z,57.70
2022-10-19T20:14:14.096Z,57.80
2022-10-19T20:16:42.704Z,57.80
2022-10-19T20:19:13.588Z,57.70
2022-10-19T20:21:43.191Z,57.70
2022-10-19T20:24:12.558Z,57.80
2022-10-19T20:26:41.284Z,57.80
2022-10-19T20:29:09.789Z,57.70
2022-10-19T20:31:40.644Z,57.70
2022-10-19T20:34:11.230Z,57.70
2022-10-19T20:36:40.278Z,57.60
2022-10-19T20:39:09.131Z,57.60
2022-10-19T20:41:37.754Z,57.60
2022-10-19T20:44:06.673Z,57.50
2022-10-19T20:46:37.039Z,57.60
2022-10-19T20:49:07.538Z,57.60
2022-10-19T20:51:38.129Z,57.60
2022-10-19T20:54:10.084Z,57.70
2022-10-19T20:56:41.432Z,57.70
2022-10-19T20:59:13.821Z,57.70
2022-10-19T21:01:44.795Z,57.80
2022-10-19T21:04:16.142Z,57.80
2022-10-19T21:06:47.307Z,57.80
2022-10-19T21:09:18.807Z,57.80
2022-10-19T21:11:50.158Z,57.70
2022-10-19T21:14:25.288Z,57.70
2022-10-19T21:16:57.854Z,57.70
2022-10-19T21:19:31.045Z,57.80
2022-10-19T21:22:02.801Z,57.90
2022-10-19T21:24:34.370Z,57.80
2022-10-19T21:27:05.201Z,57.90
2022-10-19T21:29:33.935Z,58.00
2022-10-19T21:32:03.467Z,58.10
2022-10-19T21:34:34.552Z,58.10
2022-10-19T21:37:03.985Z,58.10
2022-10-19T21:39:33.480Z,58.10
2022-10-19T21:42:02.703Z,58.10
2022-10-19T21:44:31.330Z,58.10
2022-10-19T21:47:00.706Z,58.10
2022-10-19T21:49:29.220Z,58.00
2022-10-19T21:51:59.216Z,58.00
2022-10-19T21:54:29.210Z,57.90
2022-10-19T21:57:00.353Z,58.00
2022-10-19T21:59:29.056Z,58.00
2022-10-19T22:01:57.882Z,58.00
2022-10-19T22:04:26.876Z,58.10
2022-10-19T22:06:55.556Z,58.20
2022-10-19T22:09:26.569Z,58.20
2022-10-19T22:11:55.263Z,58.10
2022-10-19T22:14:23.772Z,58.10
2022-10-19T22:16:52.561Z,58.10
2022-10-19T22:19:21.585Z,58.10
2022-10-19T22:21:50.290Z,58.20
2022-10-19T22:24:19.030Z,58.10
2022-10-19T22:26:50.999Z,58.10
2022-10-19T22:29:20.123Z,58.10
2022-10-19T22:31:48.665Z,58.10
2022-10-19T22:34:18.724Z,58.00
2022-10-19T22:36:47.538Z,58.00
2022-10-19T22:39:16.798Z,58.00
2022-10-19T22:41:45.327Z,58.00
2022-10-19T22:44:15.259Z,58.50
2022-10-19T22:46:43.758Z,58.60
2022-10-19T22:49:12.349Z,58.00
2022-10-19T22:51:40.879Z,58.10
2022-10-19T22:54:09.435Z,58.10
2022-10-19T22:56:38.241Z,58.20
2022-10-19T22:59:08.732Z,58.30
2022-10-19T23:01:39.404Z,58.30
2022-10-19T23:04:08.176Z,58.30
2022-10-19T23:06:36.674Z,58.20
2022-10-19T23:09:05.761Z,58.20
2022-10-19T23:11:34.441Z,58.10
2022-10-19T23:14:03.020Z,58.20
2022-10-19T23:16:31.837Z,58.20
2022-10-19T23:19:01.736Z,58.20
2022-10-19T23:21:30.235Z,58.30
2022-10-19T23:23:58.745Z,58.30
2022-10-19T23:26:27.302Z,58.30
2022-10-19T23:28:55.769Z,58.30
2022-10-19T23:31:26.949Z,58.30
2022-10-19T23:33:55.894Z,58.20
2022-10-19T23:36:29.218Z,58.20
2022-10-19T23:38:59.325Z,58.20
2022-10-19T23:41:27.985Z,58.10
2022-10-19T23:43:56.477Z,58.10
2022-10-19T23:46:25.099Z,58.10
2022-10-19T23:48:53.584Z,58.20
2022-10-19T23:51:23.496Z,58.30
2022-10-19T23:53:55.144Z,58.40
2022-10-19T23:56:25.963Z,58.40
2022-10-19T23:58:55.369Z,58.40
